sensor_id;sensor_type;location;lat;lon;timestamp;P1;durP1;ratioP1;P2;durP2;ratioP2
29314;SDS011;16320;53.954;9.506;2023-11-22T00:00:02;13.18;;;7.95;;
29314;SDS011;16320;53.954;9.506;2023-11-22T00:02:32;19.27;;;9.13;;
29314;SDS011;16320;53.954;9.506;2023-11-22T00:05:01;19.73;;;9.57;;
29314;SDS011;16320;53.954;9.506;2023-11-22T00:07:34;16.77;;;8.23;;
29314;SDS011;16320;53.954;9.506;2023-11-22T00:10:03;20.08;;;9.82;;
29314;SDS011;16320;53.954;9.506;2023-11-22T00:12:36;19.50;;;9.65;;
29314;SDS011;16320;53.954;9.506;2023-11-22T00:15:05;21.40;;;11.73;;
29314;SDS011;16320;53.954;9.506;2023-11-22T00:17:36;19.75;;;10.18;;
29314;SDS011;16320;53.954;9.506;2023-11-22T00:20:08;19.85;;;10.73;;
29314;SDS011;16320;53.954;9.506;2023-11-22T00:22:38;22.67;;;10.65;;
29314;SDS011;16320;53.954;9.506;2023-11-22T00:25:08;18.17;;;10.02;;
29314;SDS011;16320;53.954;9.506;2023-11-22T00:27:41;15.95;;;9.07;;
29314;SDS011;16320;53.954;9.506;2023-11-22T00:30:12;19.95;;;11.48;;
29314;SDS011;16320;53.954;9.506;2023-11-22T00:32:41;20.25;;;11.20;;
29314;SDS011;16320;53.954;9.506;2023-11-22T00:35:10;17.33;;;10.52;;
29314;SDS011;16320;53.954;9.506;2023-11-22T00:37:39;20.15;;;9.50;;
29314;SDS011;16320;53.954;9.506;2023-11-22T00:40:08;18.17;;;10.35;;
29314;SDS011;16320;53.954;9.506;2023-11-22T00:42:38;15.23;;;9.13;;
29314;SDS011;16320;53.954;9.506;2023-11-22T00:45:10;20.88;;;10.27;;
29314;SDS011;16320;53.954;9.506;2023-11-22T00:47:38;19.15;;;10.30;;
29314;SDS011;16320;53.954;9.506;2023-11-22T00:50:12;18.23;;;10.98;;
29314;SDS011;16320;53.954;9.506;2023-11-22T00:52:43;16.92;;;9.25;;
29314;SDS011;16320;53.954;9.506;2023-11-22T00:55:11;13.52;;;8.57;;
29314;SDS011;16320;53.954;9.506;2023-11-22T00:57:40;23.98;;;11.32;;
29314;SDS011;16320;53.954;9.506;2023-11-22T01:00:09;17.50;;;9.73;;
29314;SDS011;16320;53.954;9.506;2023-11-22T01:02:39;18.90;;;9.45;;
29314;SDS011;16320;53.954;9.506;2023-11-22T01:05:09;23.08;;;11.27;;
29314;SDS011;16320;53.954;9.506;2023-11-22T01:07:38;17.27;;;10.20;;
29314;SDS011;16320;53.954;9.506;2023-11-22T01:10:07;18.50;;;9.80;;
29314;SDS011;16320;53.954;9.506;2023-11-22T01:12:37;27.30;;;9.00;;
29314;SDS011;16320;53.954;9.506;2023-11-22T01:15:06;18.67;;;9.95;;
29314;SDS011;16320;53.954;9.506;2023-11-22T01:17:35;15.77;;;9.80;;
29314;SDS011;16320;53.954;9.506;2023-11-22T01:20:04;14.73;;;8.30;;
29314;SDS011;16320;53.954;9.506;2023-11-22T01:22:34;27.40;;;9.20;;
29314;SDS011;16320;53.954;9.506;2023-11-22T01:25:03;18.90;;;9.15;;
29314;SDS011;16320;53.954;9.506;2023-11-22T01:27:33;21.30;;;8.18;;
29314;SDS011;16320;53.954;9.506;2023-11-22T01:30:02;17.50;;;9.00;;
29314;SDS011;16320;53.954;9.506;2023-11-22T01:32:33;14.23;;;8.13;;
29314;SDS011;16320;53.954;9.506;2023-11-22T01:35:02;18.30;;;8.15;;
29314;SDS011;16320;53.954;9.506;2023-11-22T01:37:32;16.90;;;8.75;;
29314;SDS011;16320;53.954;9.506;2023-11-22T01:40:00;18.25;;;9.77;;
29314;SDS011;16320;53.954;9.506;2023-11-22T01:42:29;19.55;;;9.35;;
29314;SDS011;16320;53.954;9.506;2023-11-22T01:44:58;21.88;;;10.80;;
29314;SDS011;16320;53.954;9.506;2023-11-22T01:47:27;17.30;;;10.10;;
29314;SDS011;16320;53.954;9.506;2023-11-22T01:49:57;15.00;;;9.18;;
29314;SDS011;16320;53.954;9.506;2023-11-22T01:52:25;19.52;;;11.00;;
29314;SDS011;16320;53.954;9.506;2023-11-22T01:54:54;20.02;;;10.57;;
29314;SDS011;16320;53.954;9.506;2023-11-22T01:57:22;23.85;;;11.35;;
29314;SDS011;16320;53.954;9.506;2023-11-22T01:59:52;23.38;;;11.30;;
29314;SDS011;16320;53.954;9.506;2023-11-22T02:02:21;21.55;;;11.73;;
29314;SDS011;16320;53.954;9.506;2023-11-22T02:04:51;22.35;;;11.57;;
29314;SDS011;16320;53.954;9.506;2023-11-22T02:07:19;20.42;;;11.70;;
29314;SDS011;16320;53.954;9.506;2023-11-22T02:09:47;27.55;;;11.90;;
29314;SDS011;16320;53.954;9.506;2023-11-22T02:12:16;19.88;;;10.77;;
29314;SDS011;16320;53.954;9.506;2023-11-22T02:14:44;22.90;;;11.15;;
29314;SDS011;16320;53.954;9.506;2023-11-22T02:17:16;23.67;;;11.00;;
29314;SDS011;16320;53.954;9.506;2023-11-22T02:19:44;22.63;;;12.13;;
29314;SDS011;16320;53.954;9.506;2023-11-22T02:22:12;19.00;;;11.65;;
29314;SDS011;16320;53.954;9.506;2023-11-22T02:24:40;22.73;;;11.32;;
29314;SDS011;16320;53.954;9.506;2023-11-22T02:27:08;21.02;;;11.13;;
29314;SDS011;16320;53.954;9.506;2023-11-22T02:29:37;21.60;;;9.90;;
29314;SDS011;16320;53.954;9.506;2023-11-22T02:32:07;20.70;;;10.23;;
29314;SDS011;16320;53.954;9.506;2023-11-22T02:34:35;21.88;;;10.70;;
29314;SDS011;16320;53.954;9.506;2023-11-22T02:37:07;22.13;;;10.20;;
29314;SDS011;16320;53.954;9.506;2023-11-22T02:39:42;23.67;;;11.90;;
29314;SDS011;16320;53.954;9.506;2023-11-22T02:42:47;22.75;;;11.65;;
29314;SDS011;16320;53.954;9.506;2023-11-22T02:45:20;15.50;;;7.95;;
29314;SDS011;16320;53.954;9.506;2023-11-22T02:47:55;23.60;;;11.23;;
29314;SDS011;16320;53.954;9.506;2023-11-22T02:50:25;27.20;;;11.50;;
29314;SDS011;16320;53.954;9.506;2023-11-22T02:52:54;21.95;;;12.02;;
29314;SDS011;16320;53.954;9.506;2023-11-22T02:55:22;24.58;;;11.65;;
29314;SDS011;16320;53.954;9.506;2023-11-22T02:57:51;25.80;;;11.55;;
29314;SDS011;16320;53.954;9.506;2023-11-22T03:00:19;20.63;;;10.40;;
29314;SDS011;16320;53.954;9.506;2023-11-22T03:02:49;23.45;;;11.48;;
29314;SDS011;16320;53.954;9.506;2023-11-22T03:05:20;25.83;;;11.82;;
29314;SDS011;16320;53.954;9.506;2023-11-22T03:07:49;29.90;;;11.90;;
29314;SDS011;16320;53.954;9.506;2023-11-22T03:10:17;22.63;;;11.60;;
29314;SDS011;16320;53.954;9.506;2023-11-22T03:12:46;22.27;;;11.77;;
29314;SDS011;16320;53.954;9.506;2023-11-22T03:15:16;23.77;;;11.80;;
29314;SDS011;16320;53.954;9.506;2023-11-22T03:17:45;20.92;;;11.70;;
29314;SDS011;16320;53.954;9.506;2023-11-22T03:20:15;25.40;;;11.13;;
29314;SDS011;16320;53.954;9.506;2023-11-22T03:22:43;24.08;;;11.70;;
29314;SDS011;16320;53.954;9.506;2023-11-22T03:25:12;23.80;;;10.75;;
29314;SDS011;16320;53.954;9.506;2023-11-22T03:27:41;22.60;;;11.43;;
29314;SDS011;16320;53.954;9.506;2023-11-22T03:30:13;24.58;;;12.25;;
29314;SDS011;16320;53.954;9.506;2023-11-22T03:32:42;20.23;;;10.73;;
29314;SDS011;16320;53.954;9.506;2023-11-22T03:35:11;22.83;;;11.65;;
29314;SDS011;16320;53.954;9.506;2023-11-22T03:37:45;24.52;;;11.30;;
29314;SDS011;16320;53.954;9.506;2023-11-22T03:40:16;25.05;;;11.23;;
29314;SDS011;16320;53.954;9.506;2023-11-22T03:42:46;24.98;;;11.93;;
29314;SDS011;16320;53.954;9.506;2023-11-22T03:45:14;24.73;;;12.73;;
29314;SDS011;16320;53.954;9.506;2023-11-22T03:47:42;23.67;;;12.70;;
29314;SDS011;16320;53.954;9.506;2023-11-22T03:50:11;24.08;;;10.40;;
29314;SDS011;16320;53.954;9.506;2023-11-22T03:52:42;26.05;;;11.20;;
29314;SDS011;16320;53.954;9.506;2023-11-22T03:55:10;26.85;;;11.63;;
29314;SDS011;16320;53.954;9.506;2023-11-22T03:57:39;22.25;;;8.80;;
29314;SDS011;16320;53.954;9.506;2023-11-22T04:00:07;20.88;;;10.43;;
29314;SDS011;16320;53.954;9.506;2023-11-22T04:02:38;19.67;;;9.05;;
29314;SDS011;16320;53.954;9.506;2023-11-22T04:05:09;16.38;;;8.40;;
29314;SDS011;16320;53.954;9.506;2023-11-22T04:07:38;19.33;;;9.48;;
29314;SDS011;16320;53.954;9.506;2023-11-22T04:10:07;20.63;;;9.27;;
29314;SDS011;16320;53.954;9.506;2023-11-22T04:12:37;22.75;;;10.07;;
29314;SDS011;16320;53.954;9.506;2023-11-22T04:15:09;20.45;;;10.40;;
29314;SDS011;16320;53.954;9.506;2023-11-22T04:17:39;20.45;;;9.88;;
29314;SDS011;16320;53.954;9.506;2023-11-22T04:20:10;23.27;;;9.95;;
29314;SDS011;16320;53.954;9.506;2023-11-22T04:22:41;24.50;;;10.82;;
29314;SDS011;16320;53.954;9.506;2023-11-22T04:25:13;25.50;;;10.57;;
29314;SDS011;16320;53.954;9.506;2023-11-22T04:27:44;23.35;;;10.05;;
29314;SDS011;16320;53.954;9.506;2023-11-22T04:30:13;21.58;;;9.98;;
29314;SDS011;16320;53.954;9.506;2023-11-22T04:32:43;22.10;;;10.32;;
29314;SDS011;16320;53.954;9.506;2023-11-22T04:35:13;22.40;;;9.65;;
29314;SDS011;16320;53.954;9.506;2023-11-22T04:37:42;20.85;;;9.65;;
29314;SDS011;16320;53.954;9.506;2023-11-22T04:40:10;28.52;;;9.13;;
29314;SDS011;16320;53.954;9.506;2023-11-22T04:42:41;20.17;;;9.57;;
29314;SDS011;16320;53.954;9.506;2023-11-22T04:45:17;23.92;;;9.70;;
29314;SDS011;16320;53.954;9.506;2023-11-22T04:47:48;18.13;;;8.48;;
29314;SDS011;16320;53.954;9.506;2023-11-22T04:50:17;15.82;;;8.23;;
29314;SDS011;16320;53.954;9.506;2023-11-22T04:52:45;16.08;;;6.57;;
29314;SDS011;16320;53.954;9.506;2023-11-22T04:55:13;14.05;;;7.43;;
29314;SDS011;16320;53.954;9.506;2023-11-22T04:57:45;16.07;;;8.23;;
29314;SDS011;16320;53.954;9.506;2023-11-22T05:00:19;17.92;;;7.65;;
29314;SDS011;16320;53.954;9.506;2023-11-22T05:02:49;11.05;;;6.00;;
29314;SDS011;16320;53.954;9.506;2023-11-22T05:05:23;9.38;;;4.97;;
29314;SDS011;16320;53.954;9.506;2023-11-22T05:07:52;8.55;;;4.78;;
29314;SDS011;16320;53.954;9.506;2023-11-22T05:10:20;8.27;;;4.75;;
29314;SDS011;16320;53.954;9.506;2023-11-22T05:12:49;12.93;;;6.43;;
29314;SDS011;16320;53.954;9.506;2023-11-22T05:15:18;13.80;;;6.38;;
29314;SDS011;16320;53.954;9.506;2023-11-22T05:17:50;16.50;;;6.85;;
29314;SDS011;16320;53.954;9.506;2023-11-22T05:20:21;14.63;;;5.55;;
29314;SDS011;16320;53.954;9.506;2023-11-22T05:22:51;13.43;;;5.63;;
29314;SDS011;16320;53.954;9.506;2023-11-22T05:25:19;13.95;;;5.82;;
29314;SDS011;16320;53.954;9.506;2023-11-22T05:27:50;8.82;;;4.88;;
29314;SDS011;16320;53.954;9.506;2023-11-22T05:30:21;14.73;;;5.53;;
29314;SDS011;16320;53.954;9.506;2023-11-22T05:32:51;9.05;;;5.40;;
29314;SDS011;16320;53.954;9.506;2023-11-22T05:35:19;10.55;;;4.90;;
29314;SDS011;16320;53.954;9.506;2023-11-22T05:37:47;8.25;;;4.55;;
29314;SDS011;16320;53.954;9.506;2023-11-22T05:40:16;7.53;;;3.90;;
29314;SDS011;16320;53.954;9.506;2023-11-22T05:42:44;7.57;;;4.15;;
29314;SDS011;16320;53.954;9.506;2023-11-22T05:45:12;7.30;;;3.55;;
29314;SDS011;16320;53.954;9.506;2023-11-22T05:47:41;7.72;;;4.07;;
29314;SDS011;16320;53.954;9.506;2023-11-22T05:50:10;5.75;;;4.00;;
29314;SDS011;16320;53.954;9.506;2023-11-22T05:52:38;12.13;;;6.45;;
29314;SDS011;16320;53.954;9.506;2023-11-22T05:55:07;12.63;;;5.60;;
29314;SDS011;16320;53.954;9.506;2023-11-22T05:57:36;10.43;;;4.88;;
29314;SDS011;16320;53.954;9.506;2023-11-22T06:00:04;9.25;;;4.97;;
29314;SDS011;16320;53.954;9.506;2023-11-22T06:02:35;9.05;;;4.82;;
29314;SDS011;16320;53.954;9.506;2023-11-22T06:05:05;9.27;;;6.07;;
29314;SDS011;16320;53.954;9.506;2023-11-22T06:07:36;13.80;;;5.82;;
29314;SDS011;16320;53.954;9.506;2023-11-22T06:10:04;15.10;;;7.68;;
29314;SDS011;16320;53.954;9.506;2023-11-22T06:12:33;16.38;;;8.35;;
29314;SDS011;16320;53.954;9.506;2023-11-22T06:15:02;17.45;;;8.60;;
29314;SDS011;16320;53.954;9.506;2023-11-22T06:17:30;17.90;;;7.95;;
29314;SDS011;16320;53.954;9.506;2023-11-22T06:19:59;19.42;;;8.88;;
29314;SDS011;16320;53.954;9.506;2023-11-22T06:22:29;16.90;;;8.73;;
29314;SDS011;16320;53.954;9.506;2023-11-22T06:24:58;18.02;;;9.05;;
29314;SDS011;16320;53.954;9.506;2023-11-22T06:27:27;16.40;;;8.27;;
29314;SDS011;16320;53.954;9.506;2023-11-22T06:29:55;19.85;;;9.82;;
29314;SDS011;16320;53.954;9.506;2023-11-22T06:32:24;18.10;;;9.07;;
29314;SDS011;16320;53.954;9.506;2023-11-22T06:34:53;17.27;;;8.38;;
29314;SDS011;16320;53.954;9.506;2023-11-22T06:37:21;17.17;;;8.75;;
29314;SDS011;16320;53.954;9.506;2023-11-22T06:39:49;21.50;;;8.93;;
29314;SDS011;16320;53.954;9.506;2023-11-22T06:42:17;16.73;;;8.30;;
29314;SDS011;16320;53.954;9.506;2023-11-22T06:44:47;20.13;;;8.32;;
29314;SDS011;16320;53.954;9.506;2023-11-22T06:47:16;17.50;;;7.82;;
29314;SDS011;16320;53.954;9.506;2023-11-22T06:49:44;14.77;;;7.95;;
29314;SDS011;16320;53.954;9.506;2023-11-22T06:52:13;17.60;;;8.35;;
29314;SDS011;16320;53.954;9.506;2023-11-22T06:54:43;15.80;;;8.50;;
29314;SDS011;16320;53.954;9.506;2023-11-22T06:57:11;17.85;;;8.45;;
29314;SDS011;16320;53.954;9.506;2023-11-22T06:59:39;17.38;;;9.05;;
29314;SDS011;16320;53.954;9.506;2023-11-22T07:02:07;20.58;;;9.35;;
29314;SDS011;16320;53.954;9.506;2023-11-22T07:04:36;20.95;;;10.43;;
29314;SDS011;16320;53.954;9.506;2023-11-22T07:07:05;24.80;;;10.93;;
29314;SDS011;16320;53.954;9.506;2023-11-22T07:09:42;18.05;;;9.32;;
29314;SDS011;16320;53.954;9.506;2023-11-22T07:12:12;18.63;;;9.35;;
29314;SDS011;16320;53.954;9.506;2023-11-22T07:14:42;19.50;;;9.30;;
29314;SDS011;16320;53.954;9.506;2023-11-22T07:17:11;15.48;;;8.32;;
29314;SDS011;16320;53.954;9.506;2023-11-22T07:19:39;19.70;;;8.60;;
29314;SDS011;16320;53.954;9.506;2023-11-22T07:22:13;13.77;;;8.15;;
29314;SDS011;16320;53.954;9.506;2023-11-22T07:24:56;17.55;;;8.32;;
29314;SDS011;16320;53.954;9.506;2023-11-22T07:27:27;17.30;;;8.88;;
29314;SDS011;16320;53.954;9.506;2023-11-22T07:29:59;20.40;;;9.80;;
29314;SDS011;16320;53.954;9.506;2023-11-22T07:32:27;17.45;;;8.98;;
29314;SDS011;16320;53.954;9.506;2023-11-22T07:34:56;15.68;;;7.93;;
29314;SDS011;16320;53.954;9.506;2023-11-22T07:37:29;16.67;;;8.43;;
29314;SDS011;16320;53.954;9.506;2023-11-22T07:39:58;23.67;;;8.93;;
29314;SDS011;16320;53.954;9.506;2023-11-22T07:42:29;16.08;;;9.02;;
29314;SDS011;16320;53.954;9.506;2023-11-22T07:44:58;28.33;;;10.90;;
29314;SDS011;16320;53.954;9.506;2023-11-22T07:47:26;23.35;;;11.65;;
29314;SDS011;16320;53.954;9.506;2023-11-22T07:49:56;19.67;;;10.23;;
29314;SDS011;16320;53.954;9.506;2023-11-22T07:52:25;20.30;;;10.40;;
29314;SDS011;16320;53.954;9.506;2023-11-22T07:54:56;19.35;;;10.02;;
29314;SDS011;16320;53.954;9.506;2023-11-22T07:57:25;19.15;;;9.70;;
29314;SDS011;16320;53.954;9.506;2023-11-22T07:59:56;19.70;;;10.60;;
29314;SDS011;16320;53.954;9.506;2023-11-22T08:02:24;19.65;;;10.50;;
29314;SDS011;16320;53.954;9.506;2023-11-22T08:04:52;19.23;;;9.55;;
29314;SDS011;16320;53.954;9.506;2023-11-22T08:07:21;18.63;;;10.48;;
29314;SDS011;16320;53.954;9.506;2023-11-22T08:09:50;20.15;;;9.07;;
29314;SDS011;16320;53.954;9.506;2023-11-22T08:12:18;20.48;;;9.38;;
29314;SDS011;16320;53.954;9.506;2023-11-22T08:14:50;17.55;;;8.63;;
29314;SDS011;16320;53.954;9.506;2023-11-22T08:17:22;15.60;;;8.25;;
29314;SDS011;16320;53.954;9.506;2023-11-22T08:19:50;15.68;;;9.30;;
29314;SDS011;16320;53.954;9.506;2023-11-22T08:22:19;13.25;;;8.25;;
29314;SDS011;16320;53.954;9.506;2023-11-22T08:24:47;20.20;;;9.15;;
29314;SDS011;16320;53.954;9.506;2023-11-22T08:27:16;13.82;;;7.38;;
29314;SDS011;16320;53.954;9.506;2023-11-22T08:29:45;16.15;;;8.25;;
29314;SDS011;16320;53.954;9.506;2023-11-22T08:32:14;14.15;;;7.50;;
29314;SDS011;16320;53.954;9.506;2023-11-22T08:34:43;15.13;;;7.90;;
29314;SDS011;16320;53.954;9.506;2023-11-22T08:37:13;14.23;;;7.50;;
29314;SDS011;16320;53.954;9.506;2023-11-22T08:39:41;12.02;;;7.90;;
29314;SDS011;16320;53.954;9.506;2023-11-22T08:42:09;13.50;;;7.85;;
29314;SDS011;16320;53.954;9.506;2023-11-22T08:44:39;14.35;;;7.35;;
29314;SDS011;16320;53.954;9.506;2023-11-22T08:47:08;11.70;;;7.10;;
29314;SDS011;16320;53.954;9.506;2023-11-22T08:49:38;11.43;;;7.22;;
29314;SDS011;16320;53.954;9.506;2023-11-22T08:52:08;12.73;;;7.00;;
29314;SDS011;16320;53.954;9.506;2023-11-22T08:54:39;11.90;;;7.22;;
29314;SDS011;16320;53.954;9.506;2023-11-22T08:57:07;13.00;;;6.65;;
29314;SDS011;16320;53.954;9.506;2023-11-22T08:59:37;9.15;;;6.40;;
29314;SDS011;16320;53.954;9.506;2023-11-22T09:02:06;10.23;;;6.47;;
29314;SDS011;16320;53.954;9.506;2023-11-22T09:04:36;13.40;;;7.30;;
29314;SDS011;16320;53.954;9.506;2023-11-22T09:07:04;12.40;;;6.47;;
29314;SDS011;16320;53.954;9.506;2023-11-22T09:09:32;10.63;;;6.00;;
29314;SDS011;16320;53.954;9.506;2023-11-22T09:12:02;10.82;;;6.60;;
29314;SDS011;16320;53.954;9.506;2023-11-22T09:14:39;10.02;;;6.22;;
29314;SDS011;16320;53.954;9.506;2023-11-22T09:17:10;10.43;;;6.07;;
29314;SDS011;16320;53.954;9.506;2023-11-22T09:19:41;11.98;;;6.38;;
29314;SDS011;16320;53.954;9.506;2023-11-22T09:22:10;12.82;;;8.02;;
29314;SDS011;16320;53.954;9.506;2023-11-22T09:24:39;12.93;;;7.50;;
29314;SDS011;16320;53.954;9.506;2023-11-22T09:27:08;12.90;;;8.30;;
29314;SDS011;16320;53.954;9.506;2023-11-22T09:29:41;13.45;;;8.23;;
29314;SDS011;16320;53.954;9.506;2023-11-22T09:32:09;15.27;;;7.97;;
29314;SDS011;16320;53.954;9.506;2023-11-22T09:34:39;16.55;;;9.38;;
29314;SDS011;16320;53.954;9.506;2023-11-22T09:37:10;17.88;;;9.25;;
29314;SDS011;16320;53.954;9.506;2023-11-22T09:39:41;18.98;;;8.93;;
29314;SDS011;16320;53.954;9.506;2023-11-22T09:42:09;13.40;;;8.38;;
29314;SDS011;16320;53.954;9.506;2023-11-22T09:44:39;13.57;;;7.85;;
29314;SDS011;16320;53.954;9.506;2023-11-22T09:47:07;17.70;;;9.00;;
29314;SDS011;16320;53.954;9.506;2023-11-22T09:49:36;13.65;;;9.10;;
29314;SDS011;16320;53.954;9.506;2023-11-22T09:52:10;15.60;;;9.10;;
29314;SDS011;16320;53.954;9.506;2023-11-22T09:54:41;18.25;;;9.52;;
29314;SDS011;16320;53.954;9.506;2023-11-22T09:57:10;13.05;;;8.32;;
29314;SDS011;16320;53.954;9.506;2023-11-22T09:59:41;15.77;;;9.35;;
29314;SDS011;16320;53.954;9.506;2023-11-22T10:02:09;14.55;;;9.65;;
29314;SDS011;16320;53.954;9.506;2023-11-22T10:04:38;14.88;;;8.90;;
29314;SDS011;16320;53.954;9.506;2023-11-22T10:07:07;14.70;;;9.20;;
29314;SDS011;16320;53.954;9.506;2023-11-22T10:09:36;12.23;;;8.52;;
29314;SDS011;16320;53.954;9.506;2023-11-22T10:12:07;17.83;;;9.88;;
29314;SDS011;16320;53.954;9.506;2023-11-22T10:14:36;17.52;;;9.27;;
29314;SDS011;16320;53.954;9.506;2023-11-22T10:17:05;16.00;;;8.43;;
29314;SDS011;16320;53.954;9.506;2023-11-22T10:19:34;14.45;;;8.95;;
29314;SDS011;16320;53.954;9.506;2023-11-22T10:22:03;14.50;;;8.90;;
29314;SDS011;16320;53.954;9.506;2023-11-22T10:24:36;15.93;;;9.30;;
29314;SDS011;16320;53.954;9.506;2023-11-22T10:27:07;12.48;;;8.18;;
29314;SDS011;16320;53.954;9.506;2023-11-22T10:29:35;15.52;;;8.38;;
29314;SDS011;16320;53.954;9.506;2023-11-22T10:32:03;12.95;;;7.75;;
29314;SDS011;16320;53.954;9.506;2023-11-22T10:34:33;15.60;;;7.55;;
29314;SDS011;16320;53.954;9.506;2023-11-22T10:37:02;11.75;;;7.43;;
29314;SDS011;16320;53.954;9.506;2023-11-22T10:39:31;12.40;;;7.22;;
29314;SDS011;16320;53.954;9.506;2023-11-22T10:41:59;12.27;;;6.57;;
29314;SDS011;16320;53.954;9.506;2023-11-22T10:44:31;11.82;;;6.95;;
29314;SDS011;16320;53.954;9.506;2023-11-22T10:47:02;13.48;;;7.00;;
29314;SDS011;16320;53.954;9.506;2023-11-22T10:49:31;11.85;;;6.43;;
29314;SDS011;16320;53.954;9.506;2023-11-22T10:52:00;13.10;;;6.95;;
29314;SDS011;16320;53.954;9.506;2023-11-22T10:54:33;10.25;;;5.80;;
29314;SDS011;16320;53.954;9.506;2023-11-22T10:57:04;9.88;;;5.15;;
29314;SDS011;16320;53.954;9.506;2023-11-22T10:59:33;11.48;;;5.63;;
29314;SDS011;16320;53.954;9.506;2023-11-22T11:02:02;9.25;;;5.43;;
29314;SDS011;16320;53.954;9.506;2023-11-22T11:04:34;12.32;;;5.60;;
29314;SDS011;16320;53.954;9.506;2023-11-22T11:07:10;10.48;;;6.05;;
29314;SDS011;16320;53.954;9.506;2023-11-22T11:09:42;8.07;;;4.57;;
29314;SDS011;16320;53.954;9.506;2023-11-22T11:12:17;9.38;;;5.03;;
29314;SDS011;16320;53.954;9.506;2023-11-22T11:14:47;7.15;;;3.85;;
29314;SDS011;16320;53.954;9.506;2023-11-22T11:17:17;9.27;;;5.32;;
29314;SDS011;16320;53.954;9.506;2023-11-22T11:19:50;5.13;;;3.95;;
29314;SDS011;16320;53.954;9.506;2023-11-22T11:22:19;10.80;;;5.97;;
29314;SDS011;16320;53.954;9.506;2023-11-22T11:24:49;5.75;;;3.40;;
29314;SDS011;16320;53.954;9.506;2023-11-22T11:27:34;19.20;;;10.60;;
29314;SDS011;16320;53.954;9.506;2023-11-22T11:30:49;6.40;;;3.60;;
29314;SDS011;16320;53.954;9.506;2023-11-22T11:33:18;5.70;;;3.50;;
29314;SDS011;16320;53.954;9.506;2023-11-22T11:35:56;4.72;;;4.13;;
29314;SDS011;16320;53.954;9.506;2023-11-22T11:38:29;5.30;;;2.55;;
29314;SDS011;16320;53.954;9.506;2023-11-22T11:41:08;5.70;;;2.60;;
29314;SDS011;16320;53.954;9.506;2023-11-22T11:46:12;4.25;;;2.50;;
29314;SDS011;16320;53.954;9.506;2023-11-22T11:48:50;3.53;;;2.70;;
29314;SDS011;16320;53.954;9.506;2023-11-22T11:51:21;4.20;;;2.58;;
29314;SDS011;16320;53.954;9.506;2023-11-22T11:53:52;5.03;;;2.85;;
29314;SDS011;16320;53.954;9.506;2023-11-22T11:56:22;3.78;;;2.55;;
29314;SDS011;16320;53.954;9.506;2023-11-22T11:58:55;4.10;;;2.60;;
29314;SDS011;16320;53.954;9.506;2023-11-22T12:01:27;3.70;;;2.80;;
29314;SDS011;16320;53.954;9.506;2023-11-22T12:04:02;3.40;;;2.40;;
29314;SDS011;16320;53.954;9.506;2023-11-22T12:06:31;3.55;;;2.47;;
29314;SDS011;16320;53.954;9.506;2023-11-22T12:09:04;3.70;;;2.28;;
29314;SDS011;16320;53.954;9.506;2023-11-22T12:11:33;6.50;;;2.80;;
29314;SDS011;16320;53.954;9.506;2023-11-22T12:14:03;3.35;;;2.40;;
29314;SDS011;16320;53.954;9.506;2023-11-22T12:16:31;3.65;;;2.72;;
29314;SDS011;16320;53.954;9.506;2023-11-22T12:19:01;5.97;;;2.88;;
29314;SDS011;16320;53.954;9.506;2023-11-22T12:21:31;4.68;;;2.80;;
29314;SDS011;16320;53.954;9.506;2023-11-22T12:24:00;3.88;;;2.78;;
29314;SDS011;16320;53.954;9.506;2023-11-22T12:26:32;4.10;;;2.35;;
29314;SDS011;16320;53.954;9.506;2023-11-22T12:29:00;4.88;;;2.00;;
29314;SDS011;16320;53.954;9.506;2023-11-22T12:31:32;4.35;;;2.33;;
29314;SDS011;16320;53.954;9.506;2023-11-22T12:34:03;3.47;;;2.20;;
29314;SDS011;16320;53.954;9.506;2023-11-22T12:36:33;4.32;;;2.13;;
29314;SDS011;16320;53.954;9.506;2023-11-22T12:39:06;4.30;;;2.35;;
29314;SDS011;16320;53.954;9.506;2023-11-22T12:41:43;4.10;;;2.20;;
29314;SDS011;16320;53.954;9.506;2023-11-22T12:44:27;7.55;;;2.50;;
29314;SDS011;16320;53.954;9.506;2023-11-22T12:46:59;3.53;;;2.40;;
29314;SDS011;16320;53.954;9.506;2023-11-22T12:49:43;4.40;;;3.20;;
29314;SDS011;16320;53.954;9.506;2023-11-22T12:52:15;4.50;;;3.70;;
29314;SDS011;16320;53.954;9.506;2023-11-22T12:54:44;3.67;;;2.85;;
29314;SDS011;16320;53.954;9.506;2023-11-22T12:57:14;2.97;;;2.30;;
29314;SDS011;16320;53.954;9.506;2023-11-22T12:59:45;3.65;;;2.33;;
29314;SDS011;16320;53.954;9.506;2023-11-22T13:02:13;3.20;;;2.33;;
29314;SDS011;16320;53.954;9.506;2023-11-22T13:04:43;3.80;;;2.85;;
29314;SDS011;16320;53.954;9.506;2023-11-22T13:07:13;8.13;;;2.33;;
29314;SDS011;16320;53.954;9.506;2023-11-22T13:09:44;4.07;;;2.42;;
29314;SDS011;16320;53.954;9.506;2023-11-22T13:12:15;4.70;;;2.53;;
29314;SDS011;16320;53.954;9.506;2023-11-22T13:14:45;2.92;;;2.33;;
29314;SDS011;16320;53.954;9.506;2023-11-22T13:17:17;4.18;;;2.50;;
29314;SDS011;16320;53.954;9.506;2023-11-22T13:19:45;3.78;;;2.55;;
29314;SDS011;16320;53.954;9.506;2023-11-22T13:22:15;3.90;;;2.60;;
29314;SDS011;16320;53.954;9.506;2023-11-22T13:24:45;5.13;;;2.55;;
29314;SDS011;16320;53.954;9.506;2023-11-22T13:27:13;2.92;;;2.22;;
29314;SDS011;16320;53.954;9.506;2023-11-22T13:29:42;5.45;;;2.65;;
29314;SDS011;16320;53.954;9.506;2023-11-22T13:32:10;3.63;;;2.67;;
29314;SDS011;16320;53.954;9.506;2023-11-22T13:34:39;3.47;;;2.83;;
29314;SDS011;16320;53.954;9.506;2023-11-22T13:37:07;6.47;;;3.03;;
29314;SDS011;16320;53.954;9.506;2023-11-22T13:39:38;2.85;;;2.20;;
29314;SDS011;16320;53.954;9.506;2023-11-22T13:42:06;2.58;;;1.70;;
29314;SDS011;16320;53.954;9.506;2023-11-22T13:44:35;5.50;;;2.30;;
29314;SDS011;16320;53.954;9.506;2023-11-22T13:47:03;2.40;;;1.98;;
29314;SDS011;16320;53.954;9.506;2023-11-22T13:49:34;3.22;;;2.08;;
29314;SDS011;16320;53.954;9.506;2023-11-22T13:52:03;3.95;;;2.60;;
29314;SDS011;16320;53.954;9.506;2023-11-22T13:54:32;5.22;;;1.88;;
29314;SDS011;16320;53.954;9.506;2023-11-22T13:57:04;4.07;;;2.22;;
29314;SDS011;16320;53.954;9.506;2023-11-22T13:59:32;5.32;;;2.45;;
29314;SDS011;16320;53.954;9.506;2023-11-22T14:02:02;3.13;;;2.03;;
29314;SDS011;16320;53.954;9.506;2023-11-22T14:04:30;2.03;;;1.52;;
29314;SDS011;16320;53.954;9.506;2023-11-22T14:06:58;4.00;;;2.00;;
29314;SDS011;16320;53.954;9.506;2023-11-22T14:09:27;2.10;;;1.63;;
29314;SDS011;16320;53.954;9.506;2023-11-22T14:11:56;1.85;;;1.40;;
29314;SDS011;16320;53.954;9.506;2023-11-22T14:14:25;3.22;;;1.90;;
29314;SDS011;16320;53.954;9.506;2023-11-22T14:16:53;4.05;;;1.90;;
29314;SDS011;16320;53.954;9.506;2023-11-22T14:19:21;2.58;;;1.60;;
29314;SDS011;16320;53.954;9.506;2023-11-22T14:21:49;3.47;;;1.77;;
29314;SDS011;16320;53.954;9.506;2023-11-22T14:24:17;6.32;;;3.70;;
29314;SDS011;16320;53.954;9.506;2023-11-22T14:26:45;3.55;;;1.98;;
29314;SDS011;16320;53.954;9.506;2023-11-22T14:29:15;2.70;;;1.67;;
29314;SDS011;16320;53.954;9.506;2023-11-22T14:31:44;4.35;;;1.70;;
29314;SDS011;16320;53.954;9.506;2023-11-22T14:34:14;2.53;;;1.50;;
29314;SDS011;16320;53.954;9.506;2023-11-22T14:36:42;2.83;;;1.60;;
29314;SDS011;16320;53.954;9.506;2023-11-22T14:39:11;7.07;;;1.75;;
29314;SDS011;16320;53.954;9.506;2023-11-22T14:41:40;7.45;;;2.00;;
29314;SDS011;16320;53.954;9.506;2023-11-22T14:44:09;2.70;;;1.67;;
29314;SDS011;16320;53.954;9.506;2023-11-22T14:46:37;1.98;;;1.48;;
29314;SDS011;16320;53.954;9.506;2023-11-22T14:49:06;3.97;;;1.90;;
29314;SDS011;16320;53.954;9.506;2023-11-22T14:51:34;5.32;;;2.13;;
29314;SDS011;16320;53.954;9.506;2023-11-22T14:54:02;5.13;;;1.98;;